Shannon Dann — WCD6367 — position and weather

sailwx.info

Track history (hours):
 
Tides and Currents Weather Stations Pressure Air Temp Water Temp Dewpoint Dewpoint Depression Visibility Wind Speed Wind Dir Waves Ship Positions

Shannon Dann

Owner: Dann Ocean Towing, TAMPA, FL. More information available from US FCC via Universal Licensing System and Coast Guard Vessel Documentation Center.

Last reported at 2018-Apr-18 23:20 UTC. Time now 2018-Apr-21 00:22 UTC.
Position N 14°16' W 061°08'.

Length 30 m; draft 4 m.

Type: Tow > 200 m length. MMSI: 338533000.

Date/timePositionNaut miles runAvg speedWind from/ knotsBaromVisibWave heightAir tempDewpointWater temp
2018-Apr-18 23:20N 14°16' W 061°08'2 5.1
2018-Apr-18 22:59N 14°18' W 061°09'3 5.2
2018-Apr-18 22:30N 14°20' W 061°10'2 4.9
2018-Apr-18 22:00N 14°22' W 061°11'2 4.6
2018-Apr-18 21:29N 14°24' W 061°12'3 4.8
2018-Apr-18 20:46N 14°27' W 061°14'2 5.2
2018-Apr-18 20:26N 14°29' W 061°14'2 5.6
2018-Apr-18 20:00N 14°31' W 061°15'3 6.0
2018-Apr-18 19:30N 14°34' W 061°16'3 5.6
2018-Apr-18 19:00N 14°37' W 061°18'3 5.1
2018-Apr-18 18:20N 14°40' W 061°19'58 6.1
2018-Apr-18 08:49N 15°34' W 061°40'3 7.2
2018-Apr-18 08:21N 15°37' W 061°41'49 6.7
2018-Apr-18 01:03N 16°21' W 062°04'1 6.7
2018-Apr-18 00:58N 16°22' W 062°04'3 6.7
2018-Apr-18 00:30N 16°24' W 062°06'3 6.7
2018-Apr-18 00:00N 16°27' W 062°08'3 6.3
2018-Apr-17 23:30N 16°29' W 062°11'3 6.1
2018-Apr-17 23:00N 16°32' W 062°12'3 5.9
2018-Apr-17 22:30N 16°34' W 062°15'3 5.8
2018-Apr-17 22:00N 16°36' W 062°16'3 5.8
2018-Apr-17 21:30N 16°38' W 062°18'3 5.8
2018-Apr-17 20:59N 16°41' W 062°20'3 5.6
2018-Apr-17 20:29N 16°43' W 062°22'3 5.7
2018-Apr-17 20:00N 16°45' W 062°24'3 5.8
2018-Apr-17 19:30N 16°47' W 062°26'43 6.3
2018-Apr-17 12:40N 17°19' W 062°55'24 6.1
2018-Apr-17 08:45N 17°39' W 063°10'2 6.1
2018-Apr-17 08:25N 17°41' W 063°11'3 6.1
2018-Apr-17 07:54N 17°43' W 063°13'3 6.0
2018-Apr-17 07:29N 17°43' W 063°16'3 6.1
2018-Apr-17 06:59N 17°44' W 063°19'3 5.9
2018-Apr-17 06:29N 17°46' W 063°22'3 5.8
2018-Apr-17 05:59N 17°47' W 063°25'3 5.7
2018-Apr-17 05:27N 17°47' W 063°28'83 5.2
2018-Apr-16 13:42N 18°14' W 064°50'1 5.1
2018-Apr-16 13:30N 18°15' W 064°51'3 5.3
2018-Apr-16 13:00N 18°16' W 064°53'3 5.6
2018-Apr-16 12:29N 18°17' W 064°56'3 5.1
2018-Apr-16 11:58N 18°18' W 064°59'  
2018-Apr-13 21:22N 17°47' W 063°23'2 5.3
2018-Apr-13 20:56N 17°47' W 063°21'2 5.1
2018-Apr-13 20:29N 17°46' W 063°18'3 5.1
2018-Apr-13 19:56N 17°45' W 063°16'2 5.0
2018-Apr-13 19:30N 17°44' W 063°14'3 4.9
2018-Apr-13 18:59N 17°43' W 063°11'2 4.9
2018-Apr-13 18:29N 17°41' W 063°09'5 5.0
2018-Apr-13 17:31N 17°37' W 063°07'0 4.9
2018-Apr-13 17:26N 17°37' W 063°07'19 4.8
2018-Apr-13 13:31N 17°21' W 062°56'0 8.8
2018-Apr-13 13:30N 17°21' W 062°56'21 5.1
2018-Apr-13 09:30N 17°05' W 062°42'3 5.2
2018-Apr-13 08:57N 17°03' W 062°41'21 5.2
2018-Apr-13 05:00N 16°47' W 062°26'2 4.8
2018-Apr-13 04:30N 16°46' W 062°24'2 5.0
2018-Apr-13 04:00N 16°44' W 062°23'3 5.5
2018-Apr-13 03:30N 16°41' W 062°21'5 5.4
2018-Apr-13 02:37N 16°38' W 062°18'1 5.4
2018-Apr-13 02:30N 16°37' W 062°18'3 5.4
2018-Apr-13 02:00N 16°35' W 062°16'3 5.4
2018-Apr-13 01:30N 16°33' W 062°14'3 5.3
2018-Apr-13 01:00N 16°31' W 062°12'3 5.2
2018-Apr-13 00:30N 16°29' W 062°10'3 5.3
2018-Apr-13 00:00N 16°27' W 062°08'3 5.4
2018-Apr-12 23:29N 16°25' W 062°07'3 5.3
2018-Apr-12 22:57N 16°23' W 062°05'2 5.2
2018-Apr-12 22:29N 16°21' W 062°03'46 4.6
2018-Apr-12 12:27N 15°39' W 061°42'72 4.6
2018-Apr-11 20:53N 14°32' W 061°15'3 4.3
2018-Apr-11 20:15N 14°30' W 061°15'  
Track history (hours):
 
Tides and Currents Weather Stations Pressure Air Temp Water Temp Dewpoint Dewpoint Depression Visibility Wind Speed Wind Dir Waves Ship Positions

Shannon Dann

Owner: Dann Ocean Towing, TAMPA, FL. More information available from US FCC via Universal Licensing System and Coast Guard Vessel Documentation Center.

Last reported at 2018-Apr-18 23:20 UTC. Time now 2018-Apr-21 00:22 UTC.
Position N 14°16' W 061°08'.

Length 30 m; draft 4 m.

Type: Tow > 200 m length. MMSI: 338533000.

Date/timePositionNaut miles runAvg speedWind from/ knotsBaromVisibWave heightAir tempDewpointWater temp
2018-Apr-18 23:20N 14°16' W 061°08'2 5.1
2018-Apr-18 22:59N 14°18' W 061°09'3 5.2
2018-Apr-18 22:30N 14°20' W 061°10'2 4.9
2018-Apr-18 22:00N 14°22' W 061°11'2 4.6
2018-Apr-18 21:29N 14°24' W 061°12'3 4.8
2018-Apr-18 20:46N 14°27' W 061°14'2 5.2
2018-Apr-18 20:26N 14°29' W 061°14'2 5.6
2018-Apr-18 20:00N 14°31' W 061°15'3 6.0
2018-Apr-18 19:30N 14°34' W 061°16'3 5.6
2018-Apr-18 19:00N 14°37' W 061°18'3 5.1
2018-Apr-18 18:20N 14°40' W 061°19'58 6.1
2018-Apr-18 08:49N 15°34' W 061°40'3 7.2
2018-Apr-18 08:21N 15°37' W 061°41'49 6.7
2018-Apr-18 01:03N 16°21' W 062°04'1 6.7
2018-Apr-18 00:58N 16°22' W 062°04'3 6.7
2018-Apr-18 00:30N 16°24' W 062°06'3 6.7
2018-Apr-18 00:00N 16°27' W 062°08'3 6.3
2018-Apr-17 23:30N 16°29' W 062°11'3 6.1
2018-Apr-17 23:00N 16°32' W 062°12'3 5.9
2018-Apr-17 22:30N 16°34' W 062°15'3 5.8
2018-Apr-17 22:00N 16°36' W 062°16'3 5.8
2018-Apr-17 21:30N 16°38' W 062°18'3 5.8
2018-Apr-17 20:59N 16°41' W 062°20'3 5.6
2018-Apr-17 20:29N 16°43' W 062°22'3 5.7
2018-Apr-17 20:00N 16°45' W 062°24'3 5.8
2018-Apr-17 19:30N 16°47' W 062°26'43 6.3
2018-Apr-17 12:40N 17°19' W 062°55'24 6.1
2018-Apr-17 08:45N 17°39' W 063°10'2 6.1
2018-Apr-17 08:25N 17°41' W 063°11'3 6.1
2018-Apr-17 07:54N 17°43' W 063°13'3 6.0
2018-Apr-17 07:29N 17°43' W 063°16'3 6.1
2018-Apr-17 06:59N 17°44' W 063°19'3 5.9
2018-Apr-17 06:29N 17°46' W 063°22'3 5.8
2018-Apr-17 05:59N 17°47' W 063°25'3 5.7
2018-Apr-17 05:27N 17°47' W 063°28'83 5.2
2018-Apr-16 13:42N 18°14' W 064°50'1 5.1
2018-Apr-16 13:30N 18°15' W 064°51'3 5.3
2018-Apr-16 13:00N 18°16' W 064°53'3 5.6
2018-Apr-16 12:29N 18°17' W 064°56'3 5.1
2018-Apr-16 11:58N 18°18' W 064°59'  
2018-Apr-13 21:22N 17°47' W 063°23'2 5.3
2018-Apr-13 20:56N 17°47' W 063°21'2 5.1
2018-Apr-13 20:29N 17°46' W 063°18'3 5.1
2018-Apr-13 19:56N 17°45' W 063°16'2 5.0
2018-Apr-13 19:30N 17°44' W 063°14'3 4.9
2018-Apr-13 18:59N 17°43' W 063°11'2 4.9
2018-Apr-13 18:29N 17°41' W 063°09'5 5.0
2018-Apr-13 17:31N 17°37' W 063°07'0 4.9
2018-Apr-13 17:26N 17°37' W 063°07'19 4.8
2018-Apr-13 13:31N 17°21' W 062°56'0 8.8
2018-Apr-13 13:30N 17°21' W 062°56'21 5.1
2018-Apr-13 09:30N 17°05' W 062°42'3 5.2
2018-Apr-13 08:57N 17°03' W 062°41'21 5.2
2018-Apr-13 05:00N 16°47' W 062°26'2 4.8
2018-Apr-13 04:30N 16°46' W 062°24'2 5.0
2018-Apr-13 04:00N 16°44' W 062°23'3 5.5
2018-Apr-13 03:30N 16°41' W 062°21'5 5.4
2018-Apr-13 02:37N 16°38' W 062°18'1 5.4
2018-Apr-13 02:30N 16°37' W 062°18'3 5.4
2018-Apr-13 02:00N 16°35' W 062°16'3 5.4
2018-Apr-13 01:30N 16°33' W 062°14'3 5.3
2018-Apr-13 01:00N 16°31' W 062°12'3 5.2
2018-Apr-13 00:30N 16°29' W 062°10'3 5.3
2018-Apr-13 00:00N 16°27' W 062°08'3 5.4
2018-Apr-12 23:29N 16°25' W 062°07'3 5.3
2018-Apr-12 22:57N 16°23' W 062°05'2 5.2
2018-Apr-12 22:29N 16°21' W 062°03'46 4.6
2018-Apr-12 12:27N 15°39' W 061°42'72 4.6
2018-Apr-11 20:53N 14°32' W 061°15'3 4.3
2018-Apr-11 20:15N 14°30' W 061°15'  

Dump ship's entire track history